sensor_id;sensor_type;location;lat;lon;timestamp;temperature;humidity
66184;DHT22;52989;48.796;9.806;2023-03-23T00:00:41;11.70;78.30
66184;DHT22;52989;48.796;9.806;2023-03-23T00:03:07;11.90;79.10
66184;DHT22;52989;48.796;9.806;2023-03-23T00:05:32;11.80;78.50
66184;DHT22;52989;48.796;9.806;2023-03-23T00:07:58;12.10;76.80
66184;DHT22;52989;48.796;9.806;2023-03-23T00:10:24;12.00;76.90
66184;DHT22;52989;48.796;9.806;2023-03-23T00:12:51;12.00;76.50
66184;DHT22;52989;48.796;9.806;2023-03-23T00:15:16;12.10;76.30
66184;DHT22;52989;48.796;9.806;2023-03-23T00:17:42;12.10;76.90
66184;DHT22;52989;48.796;9.806;2023-03-23T00:20:08;11.80;78.60
66184;DHT22;52989;48.796;9.806;2023-03-23T00:22:37;11.80;78.60
66184;DHT22;52989;48.796;9.806;2023-03-23T00:25:04;11.80;77.80
66184;DHT22;52989;48.796;9.806;2023-03-23T00:27:30;12.10;78.20
66184;DHT22;52989;48.796;9.806;2023-03-23T00:29:56;12.00;77.80
66184;DHT22;52989;48.796;9.806;2023-03-23T00:32:23;11.80;78.60
66184;DHT22;52989;48.796;9.806;2023-03-23T00:34:57;11.90;77.20
66184;DHT22;52989;48.796;9.806;2023-03-23T00:37:24;11.90;78.30
66184;DHT22;52989;48.796;9.806;2023-03-23T00:39:49;11.70;79.20
66184;DHT22;52989;48.796;9.806;2023-03-23T00:42:16;11.80;77.60
66184;DHT22;52989;48.796;9.806;2023-03-23T00:44:42;11.70;79.50
66184;DHT22;52989;48.796;9.806;2023-03-23T00:47:11;11.80;77.80
66184;DHT22;52989;48.796;9.806;2023-03-23T00:49:37;12.10;76.70
66184;DHT22;52989;48.796;9.806;2023-03-23T00:52:03;12.20;78.20
66184;DHT22;52989;48.796;9.806;2023-03-23T00:54:29;11.80;83.00
66184;DHT22;52989;48.796;9.806;2023-03-23T00:56:55;11.60;84.20
66184;DHT22;52989;48.796;9.806;2023-03-23T00:59:20;11.70;80.20
66184;DHT22;52989;48.796;9.806;2023-03-23T01:01:46;11.80;77.80
66184;DHT22;52989;48.796;9.806;2023-03-23T01:04:12;11.90;78.50
66184;DHT22;52989;48.796;9.806;2023-03-23T01:06:38;11.90;78.70
66184;DHT22;52989;48.796;9.806;2023-03-23T01:09:08;11.90;78.20
66184;DHT22;52989;48.796;9.806;2023-03-23T01:11:33;11.80;78.30
66184;DHT22;52989;48.796;9.806;2023-03-23T01:13:59;11.80;78.60
66184;DHT22;52989;48.796;9.806;2023-03-23T01:16:25;11.90;77.20
66184;DHT22;52989;48.796;9.806;2023-03-23T01:18:50;12.00;80.10
66184;DHT22;52989;48.796;9.806;2023-03-23T01:21:17;11.30;86.80
66184;DHT22;52989;48.796;9.806;2023-03-23T01:23:43;11.10;88.20
66184;DHT22;52989;48.796;9.806;2023-03-23T01:26:10;11.10;87.90
66184;DHT22;52989;48.796;9.806;2023-03-23T01:28:36;11.10;85.00
66184;DHT22;52989;48.796;9.806;2023-03-23T01:31:03;11.20;83.20
66184;DHT22;52989;48.796;9.806;2023-03-23T01:33:29;11.20;82.20
66184;DHT22;52989;48.796;9.806;2023-03-23T01:35:54;11.20;82.10
66184;DHT22;52989;48.796;9.806;2023-03-23T01:38:20;11.30;82.50
66184;DHT22;52989;48.796;9.806;2023-03-23T01:40:46;11.40;80.90
66184;DHT22;52989;48.796;9.806;2023-03-23T01:43:13;11.60;81.40
66184;DHT22;52989;48.796;9.806;2023-03-23T01:45:39;11.50;80.00
66184;DHT22;52989;48.796;9.806;2023-03-23T01:48:07;11.30;80.80
66184;DHT22;52989;48.796;9.806;2023-03-23T01:50:34;11.50;81.70
66184;DHT22;52989;48.796;9.806;2023-03-23T01:53:01;11.70;84.80
66184;DHT22;52989;48.796;9.806;2023-03-23T01:55:29;11.50;85.20
66184;DHT22;52989;48.796;9.806;2023-03-23T01:57:55;11.30;84.70
66184;DHT22;52989;48.796;9.806;2023-03-23T02:00:22;11.30;85.00
66184;DHT22;52989;48.796;9.806;2023-03-23T02:02:49;11.20;84.20
66184;DHT22;52989;48.796;9.806;2023-03-23T02:05:21;11.00;85.60
66184;DHT22;52989;48.796;9.806;2023-03-23T02:07:48;10.90;87.30
66184;DHT22;52989;48.796;9.806;2023-03-23T02:10:15;10.90;85.30
66184;DHT22;52989;48.796;9.806;2023-03-23T02:12:40;10.80;85.80
66184;DHT22;52989;48.796;9.806;2023-03-23T02:15:06;10.80;84.90
66184;DHT22;52989;48.796;9.806;2023-03-23T02:17:38;11.10;84.00
66184;DHT22;52989;48.796;9.806;2023-03-23T02:20:22;11.30;83.70
66184;DHT22;52989;48.796;9.806;2023-03-23T02:22:53;11.60;83.40
66184;DHT22;52989;48.796;9.806;2023-03-23T02:35:42;11.40;86.00
66184;DHT22;52989;48.796;9.806;2023-03-23T02:38:11;11.30;86.70
66184;DHT22;52989;48.796;9.806;2023-03-23T02:40:40;11.40;87.10
66184;DHT22;52989;48.796;9.806;2023-03-23T02:43:07;11.30;88.00
66184;DHT22;52989;48.796;9.806;2023-03-23T02:45:33;11.00;89.30
66184;DHT22;52989;48.796;9.806;2023-03-23T02:47:59;11.10;90.00
66184;DHT22;52989;48.796;9.806;2023-03-23T02:50:27;11.30;89.90
66184;DHT22;52989;48.796;9.806;2023-03-23T02:52:54;11.30;88.30
66184;DHT22;52989;48.796;9.806;2023-03-23T02:55:21;11.20;89.50
66184;DHT22;52989;48.796;9.806;2023-03-23T02:57:50;11.30;88.50
66184;DHT22;52989;48.796;9.806;2023-03-23T03:00:17;11.00;88.40
66184;DHT22;52989;48.796;9.806;2023-03-23T03:02:47;11.20;87.70
66184;DHT22;52989;48.796;9.806;2023-03-23T03:05:35;10.90;89.00
66184;DHT22;52989;48.796;9.806;2023-03-23T03:16:04;11.10;86.70
66184;DHT22;52989;48.796;9.806;2023-03-23T03:18:32;11.30;86.50
66184;DHT22;52989;48.796;9.806;2023-03-23T03:21:01;11.20;87.10
66184;DHT22;52989;48.796;9.806;2023-03-23T03:23:27;11.00;87.10
66184;DHT22;52989;48.796;9.806;2023-03-23T03:25:53;11.00;88.20
66184;DHT22;52989;48.796;9.806;2023-03-23T03:28:22;11.10;87.70
66184;DHT22;52989;48.796;9.806;2023-03-23T03:30:49;11.00;88.70
66184;DHT22;52989;48.796;9.806;2023-03-23T03:33:17;10.80;89.10
66184;DHT22;52989;48.796;9.806;2023-03-23T03:35:43;11.00;87.20
66184;DHT22;52989;48.796;9.806;2023-03-23T03:38:09;11.10;87.10
66184;DHT22;52989;48.796;9.806;2023-03-23T03:40:35;11.00;88.60
66184;DHT22;52989;48.796;9.806;2023-03-23T03:43:01;10.90;88.40
66184;DHT22;52989;48.796;9.806;2023-03-23T03:45:26;11.20;89.00
66184;DHT22;52989;48.796;9.806;2023-03-23T03:47:52;11.10;89.30
66184;DHT22;52989;48.796;9.806;2023-03-23T03:50:17;11.00;89.10
66184;DHT22;52989;48.796;9.806;2023-03-23T03:52:43;11.00;89.80
66184;DHT22;52989;48.796;9.806;2023-03-23T03:55:09;11.30;88.40
66184;DHT22;52989;48.796;9.806;2023-03-23T03:57:35;11.50;86.30
66184;DHT22;52989;48.796;9.806;2023-03-23T04:00:00;11.60;85.70
66184;DHT22;52989;48.796;9.806;2023-03-23T04:02:38;11.60;86.70
66184;DHT22;52989;48.796;9.806;2023-03-23T04:05:03;11.50;87.40
66184;DHT22;52989;48.796;9.806;2023-03-23T04:07:29;11.60;86.40
66184;DHT22;52989;48.796;9.806;2023-03-23T04:09:54;11.60;85.90
66184;DHT22;52989;48.796;9.806;2023-03-23T04:12:20;11.70;85.80
66184;DHT22;52989;48.796;9.806;2023-03-23T04:14:45;11.70;84.30
66184;DHT22;52989;48.796;9.806;2023-03-23T04:17:11;11.70;84.30
66184;DHT22;52989;48.796;9.806;2023-03-23T04:19:37;11.50;88.30
66184;DHT22;52989;48.796;9.806;2023-03-23T04:22:03;11.50;88.50
66184;DHT22;52989;48.796;9.806;2023-03-23T04:24:28;11.30;89.50
66184;DHT22;52989;48.796;9.806;2023-03-23T04:26:56;11.30;89.30
66184;DHT22;52989;48.796;9.806;2023-03-23T04:29:21;11.50;87.90
66184;DHT22;52989;48.796;9.806;2023-03-23T04:31:47;11.50;86.60
66184;DHT22;52989;48.796;9.806;2023-03-23T04:34:15;11.80;86.10
66184;DHT22;52989;48.796;9.806;2023-03-23T04:36:41;11.90;86.60
66184;DHT22;52989;48.796;9.806;2023-03-23T04:39:07;11.70;86.90
66184;DHT22;52989;48.796;9.806;2023-03-23T04:41:38;11.90;86.80
66184;DHT22;52989;48.796;9.806;2023-03-23T04:44:03;11.80;87.20
66184;DHT22;52989;48.796;9.806;2023-03-23T04:46:29;11.80;87.00
66184;DHT22;52989;48.796;9.806;2023-03-23T04:48:55;11.80;87.30
66184;DHT22;52989;48.796;9.806;2023-03-23T04:51:24;11.80;87.00
66184;DHT22;52989;48.796;9.806;2023-03-23T04:53:49;11.90;85.90
66184;DHT22;52989;48.796;9.806;2023-03-23T04:56:15;11.80;85.70
66184;DHT22;52989;48.796;9.806;2023-03-23T04:58:41;11.90;85.40
66184;DHT22;52989;48.796;9.806;2023-03-23T05:01:08;11.90;85.60
66184;DHT22;52989;48.796;9.806;2023-03-23T05:03:34;11.90;85.60
66184;DHT22;52989;48.796;9.806;2023-03-23T05:06:01;11.90;85.30
66184;DHT22;52989;48.796;9.806;2023-03-23T05:08:26;11.90;85.50
66184;DHT22;52989;48.796;9.806;2023-03-23T05:10:53;11.90;84.70
66184;DHT22;52989;48.796;9.806;2023-03-23T05:13:19;12.00;85.00
66184;DHT22;52989;48.796;9.806;2023-03-23T05:15:44;12.20;84.90
66184;DHT22;52989;48.796;9.806;2023-03-23T05:18:10;12.20;84.10
66184;DHT22;52989;48.796;9.806;2023-03-23T05:20:36;12.30;83.00
66184;DHT22;52989;48.796;9.806;2023-03-23T05:23:02;12.20;82.50
66184;DHT22;52989;48.796;9.806;2023-03-23T05:25:27;12.20;81.90
66184;DHT22;52989;48.796;9.806;2023-03-23T05:27:53;12.10;82.30
66184;DHT22;52989;48.796;9.806;2023-03-23T05:30:19;12.00;81.90
66184;DHT22;52989;48.796;9.806;2023-03-23T05:32:45;12.10;82.10
66184;DHT22;52989;48.796;9.806;2023-03-23T05:35:11;12.20;83.00
66184;DHT22;52989;48.796;9.806;2023-03-23T05:37:37;12.20;82.40
66184;DHT22;52989;48.796;9.806;2023-03-23T05:40:02;12.10;82.10
66184;DHT22;52989;48.796;9.806;2023-03-23T05:42:32;12.10;82.40
66184;DHT22;52989;48.796;9.806;2023-03-23T05:44:58;12.10;82.90
66184;DHT22;52989;48.796;9.806;2023-03-23T05:47:24;12.10;83.50
66184;DHT22;52989;48.796;9.806;2023-03-23T05:49:50;12.20;84.00
66184;DHT22;52989;48.796;9.806;2023-03-23T05:52:17;11.90;84.40
66184;DHT22;52989;48.796;9.806;2023-03-23T05:54:43;12.00;85.20
66184;DHT22;52989;48.796;9.806;2023-03-23T05:57:08;12.10;84.70
66184;DHT22;52989;48.796;9.806;2023-03-23T05:59:34;12.00;85.50
66184;DHT22;52989;48.796;9.806;2023-03-23T06:02:00;12.20;85.60
66184;DHT22;52989;48.796;9.806;2023-03-23T06:04:26;12.10;86.00
66184;DHT22;52989;48.796;9.806;2023-03-23T06:06:52;12.10;86.10
66184;DHT22;52989;48.796;9.806;2023-03-23T06:09:18;12.10;85.50
66184;DHT22;52989;48.796;9.806;2023-03-23T06:11:44;12.00;87.40
66184;DHT22;52989;48.796;9.806;2023-03-23T06:14:09;11.90;89.10
66184;DHT22;52989;48.796;9.806;2023-03-23T06:16:35;12.10;88.50
66184;DHT22;52989;48.796;9.806;2023-03-23T06:19:00;11.80;90.10
66184;DHT22;52989;48.796;9.806;2023-03-23T06:21:32;11.90;89.80
66184;DHT22;52989;48.796;9.806;2023-03-23T06:23:58;12.20;88.60
66184;DHT22;52989;48.796;9.806;2023-03-23T06:26:29;12.00;88.30
66184;DHT22;52989;48.796;9.806;2023-03-23T06:28:56;12.10;88.00
66184;DHT22;52989;48.796;9.806;2023-03-23T06:31:23;12.20;89.40
66184;DHT22;52989;48.796;9.806;2023-03-23T06:33:49;12.20;89.30
66184;DHT22;52989;48.796;9.806;2023-03-23T06:36:14;12.40;87.50
66184;DHT22;52989;48.796;9.806;2023-03-23T06:38:40;12.70;86.00
66184;DHT22;52989;48.796;9.806;2023-03-23T06:41:05;12.90;82.70
66184;DHT22;52989;48.796;9.806;2023-03-23T06:43:31;13.40;79.70
66184;DHT22;52989;48.796;9.806;2023-03-23T06:45:59;13.80;77.20
66184;DHT22;52989;48.796;9.806;2023-03-23T06:48:25;13.80;76.50
66184;DHT22;52989;48.796;9.806;2023-03-23T06:50:52;14.00;75.40
66184;DHT22;52989;48.796;9.806;2023-03-23T06:53:17;14.10;75.40
66184;DHT22;52989;48.796;9.806;2023-03-23T06:55:45;14.10;76.00
66184;DHT22;52989;48.796;9.806;2023-03-23T06:58:11;14.20;76.80
66184;DHT22;52989;48.796;9.806;2023-03-23T07:00:36;14.00;76.80
66184;DHT22;52989;48.796;9.806;2023-03-23T07:03:02;14.10;76.30
66184;DHT22;52989;48.796;9.806;2023-03-23T07:05:28;14.10;75.50
66184;DHT22;52989;48.796;9.806;2023-03-23T07:07:53;14.20;75.00
66184;DHT22;52989;48.796;9.806;2023-03-23T07:10:19;14.20;74.30
66184;DHT22;52989;48.796;9.806;2023-03-23T07:12:45;14.30;74.30
66184;DHT22;52989;48.796;9.806;2023-03-23T07:15:11;14.30;74.40
66184;DHT22;52989;48.796;9.806;2023-03-23T07:17:37;14.30;74.30
66184;DHT22;52989;48.796;9.806;2023-03-23T07:20:03;14.50;74.20
66184;DHT22;52989;48.796;9.806;2023-03-23T07:22:30;14.50;74.70
66184;DHT22;52989;48.796;9.806;2023-03-23T07:24:55;14.60;75.10
66184;DHT22;52989;48.796;9.806;2023-03-23T07:27:21;14.60;74.20
66184;DHT22;52989;48.796;9.806;2023-03-23T07:29:46;14.60;73.50
66184;DHT22;52989;48.796;9.806;2023-03-23T07:32:12;14.70;73.60
66184;DHT22;52989;48.796;9.806;2023-03-23T07:34:38;14.70;73.00
66184;DHT22;52989;48.796;9.806;2023-03-23T07:37:03;14.80;74.00
66184;DHT22;52989;48.796;9.806;2023-03-23T07:39:29;14.80;74.00
66184;DHT22;52989;48.796;9.806;2023-03-23T07:41:55;14.80;73.40
66184;DHT22;52989;48.796;9.806;2023-03-23T07:44:20;14.80;73.00
66184;DHT22;52989;48.796;9.806;2023-03-23T07:46:46;14.80;73.60
66184;DHT22;52989;48.796;9.806;2023-03-23T07:49:12;14.90;74.50
66184;DHT22;52989;48.796;9.806;2023-03-23T07:51:37;14.80;73.50
66184;DHT22;52989;48.796;9.806;2023-03-23T07:54:06;14.90;72.80
66184;DHT22;52989;48.796;9.806;2023-03-23T07:56:33;14.80;73.50
66184;DHT22;52989;48.796;9.806;2023-03-23T07:58:59;14.80;73.30
66184;DHT22;52989;48.796;9.806;2023-03-23T08:01:24;14.70;73.60
66184;DHT22;52989;48.796;9.806;2023-03-23T08:03:50;14.60;75.20
66184;DHT22;52989;48.796;9.806;2023-03-23T08:06:17;14.60;75.50
66184;DHT22;52989;48.796;9.806;2023-03-23T08:08:42;14.60;76.50
66184;DHT22;52989;48.796;9.806;2023-03-23T08:11:08;14.60;78.00
66184;DHT22;52989;48.796;9.806;2023-03-23T08:13:34;14.40;79.10
66184;DHT22;52989;48.796;9.806;2023-03-23T08:16:00;14.40;81.30
66184;DHT22;52989;48.796;9.806;2023-03-23T08:18:29;14.40;82.60
66184;DHT22;52989;48.796;9.806;2023-03-23T08:20:54;14.50;83.20
66184;DHT22;52989;48.796;9.806;2023-03-23T08:23:20;14.40;82.10
66184;DHT22;52989;48.796;9.806;2023-03-23T08:25:47;14.50;83.80
66184;DHT22;52989;48.796;9.806;2023-03-23T08:28:12;14.60;83.10
66184;DHT22;52989;48.796;9.806;2023-03-23T08:30:39;14.50;82.80
66184;DHT22;52989;48.796;9.806;2023-03-23T08:33:05;14.40;82.50
66184;DHT22;52989;48.796;9.806;2023-03-23T08:35:31;14.40;82.00
66184;DHT22;52989;48.796;9.806;2023-03-23T08:37:56;14.50;81.60
66184;DHT22;52989;48.796;9.806;2023-03-23T08:40:23;14.50;81.40
66184;DHT22;52989;48.796;9.806;2023-03-23T08:42:49;14.60;80.30
66184;DHT22;52989;48.796;9.806;2023-03-23T08:45:16;14.90;81.90
66184;DHT22;52989;48.796;9.806;2023-03-23T08:47:43;14.90;79.50
66184;DHT22;52989;48.796;9.806;2023-03-23T08:50:10;14.90;76.60
66184;DHT22;52989;48.796;9.806;2023-03-23T08:52:36;15.00;76.90
66184;DHT22;52989;48.796;9.806;2023-03-23T08:55:02;15.30;77.00
66184;DHT22;52989;48.796;9.806;2023-03-23T08:57:28;15.50;75.90
66184;DHT22;52989;48.796;9.806;2023-03-23T08:59:54;15.80;75.20
66184;DHT22;52989;48.796;9.806;2023-03-23T09:02:22;15.90;73.90
66184;DHT22;52989;48.796;9.806;2023-03-23T09:04:49;16.00;74.50
66184;DHT22;52989;48.796;9.806;2023-03-23T09:07:14;16.10;73.40
66184;DHT22;52989;48.796;9.806;2023-03-23T09:09:40;16.30;74.50
66184;DHT22;52989;48.796;9.806;2023-03-23T09:12:07;16.50;73.70
66184;DHT22;52989;48.796;9.806;2023-03-23T09:14:34;16.50;73.30
66184;DHT22;52989;48.796;9.806;2023-03-23T09:16:59;16.30;72.50
66184;DHT22;52989;48.796;9.806;2023-03-23T09:19:25;15.80;72.50
66184;DHT22;52989;48.796;9.806;2023-03-23T09:21:50;15.70;72.60
66184;DHT22;52989;48.796;9.806;2023-03-23T09:24:16;15.60;72.70
66184;DHT22;52989;48.796;9.806;2023-03-23T09:26:41;15.50;72.70
66184;DHT22;52989;48.796;9.806;2023-03-23T09:29:07;15.40;73.00
66184;DHT22;52989;48.796;9.806;2023-03-23T09:31:33;15.40;73.80
66184;DHT22;52989;48.796;9.806;2023-03-23T09:33:58;15.50;74.60
66184;DHT22;52989;48.796;9.806;2023-03-23T09:36:24;15.40;75.30
66184;DHT22;52989;48.796;9.806;2023-03-23T09:38:51;15.30;75.90
66184;DHT22;52989;48.796;9.806;2023-03-23T09:49:19;15.30;75.30
66184;DHT22;52989;48.796;9.806;2023-03-23T09:51:49;15.40;75.50
66184;DHT22;52989;48.796;9.806;2023-03-23T09:54:30;15.40;75.20
66184;DHT22;52989;48.796;9.806;2023-03-23T09:56:57;15.50;75.80
66184;DHT22;52989;48.796;9.806;2023-03-23T09:59:24;15.60;75.70
66184;DHT22;52989;48.796;9.806;2023-03-23T10:01:55;15.70;75.70
66184;DHT22;52989;48.796;9.806;2023-03-23T10:06:48;15.60;76.00
66184;DHT22;52989;48.796;9.806;2023-03-23T10:09:16;15.60;75.20
66184;DHT22;52989;48.796;9.806;2023-03-23T10:14:25;15.40;75.80
66184;DHT22;52989;48.796;9.806;2023-03-23T10:16:58;15.30;75.80
66184;DHT22;52989;48.796;9.806;2023-03-23T10:21:57;15.30;76.60
66184;DHT22;52989;48.796;9.806;2023-03-23T10:24:35;15.30;76.50
66184;DHT22;52989;48.796;9.806;2023-03-23T10:29:48;15.30;76.70
66184;DHT22;52989;48.796;9.806;2023-03-23T10:32:17;15.30;77.00
66184;DHT22;52989;48.796;9.806;2023-03-23T10:34:50;15.20;77.40
66184;DHT22;52989;48.796;9.806;2023-03-23T10:39:45;15.30;77.20
66184;DHT22;52989;48.796;9.806;2023-03-23T10:42:12;15.30;78.00
66184;DHT22;52989;48.796;9.806;2023-03-23T10:44:37;15.40;78.00
66184;DHT22;52989;48.796;9.806;2023-03-23T10:47:04;15.50;77.40
66184;DHT22;52989;48.796;9.806;2023-03-23T10:49:33;15.50;77.00
66184;DHT22;52989;48.796;9.806;2023-03-23T10:52:04;15.50;77.10
66184;DHT22;52989;48.796;9.806;2023-03-23T10:54:35;15.50;76.90
66184;DHT22;52989;48.796;9.806;2023-03-23T10:57:01;15.50;76.70
66184;DHT22;52989;48.796;9.806;2023-03-23T10:59:39;15.50;76.50
66184;DHT22;52989;48.796;9.806;2023-03-23T11:02:08;15.50;76.50
66184;DHT22;52989;48.796;9.806;2023-03-23T11:04:36;15.60;77.00
66184;DHT22;52989;48.796;9.806;2023-03-23T11:07:02;15.80;76.70
66184;DHT22;52989;48.796;9.806;2023-03-23T11:09:38;16.00;75.80
66184;DHT22;52989;48.796;9.806;2023-03-23T11:12:04;16.00;75.70
66184;DHT22;52989;48.796;9.806;2023-03-23T11:19:30;16.10;76.30
66184;DHT22;52989;48.796;9.806;2023-03-23T11:22:00;16.10;75.70
66184;DHT22;52989;48.796;9.806;2023-03-23T11:24:31;16.30;76.60
66184;DHT22;52989;48.796;9.806;2023-03-23T11:26:57;16.30;77.20
66184;DHT22;52989;48.796;9.806;2023-03-23T11:29:26;16.50;75.90
66184;DHT22;52989;48.796;9.806;2023-03-23T11:34:25;16.60;74.30
66184;DHT22;52989;48.796;9.806;2023-03-23T11:37:00;16.50;74.40
66184;DHT22;52989;48.796;9.806;2023-03-23T11:39:30;16.60;73.90
66184;DHT22;52989;48.796;9.806;2023-03-23T11:41:57;16.70;75.40
66184;DHT22;52989;48.796;9.806;2023-03-23T11:44:23;16.90;76.30
66184;DHT22;52989;48.796;9.806;2023-03-23T11:47:13;17.00;75.30
66184;DHT22;52989;48.796;9.806;2023-03-23T11:49:44;17.20;76.90
66184;DHT22;52989;48.796;9.806;2023-03-23T11:52:21;17.10;75.30
66184;DHT22;52989;48.796;9.806;2023-03-23T11:54:57;17.30;75.90
66184;DHT22;52989;48.796;9.806;2023-03-23T11:57:23;17.30;76.20
66184;DHT22;52989;48.796;9.806;2023-03-23T11:59:49;16.90;76.90
66184;DHT22;52989;48.796;9.806;2023-03-23T12:12:41;17.50;79.20
66184;DHT22;52989;48.796;9.806;2023-03-23T12:27:57;17.30;76.40
66184;DHT22;52989;48.796;9.806;2023-03-23T12:30:31;17.60;75.60
66184;DHT22;52989;48.796;9.806;2023-03-23T12:33:03;17.40;75.50
66184;DHT22;52989;48.796;9.806;2023-03-23T12:43:13;17.90;75.50
66184;DHT22;52989;48.796;9.806;2023-03-23T12:48:13;17.80;74.80
66184;DHT22;52989;48.796;9.806;2023-03-23T12:58:14;17.40;74.50
66184;DHT22;52989;48.796;9.806;2023-03-23T13:03:23;17.70;74.70
66184;DHT22;52989;48.796;9.806;2023-03-23T13:05:57;17.50;73.40
66184;DHT22;52989;48.796;9.806;2023-03-23T13:08:26;17.20;74.10
66184;DHT22;52989;48.796;9.806;2023-03-23T13:10:55;17.20;74.00
66184;DHT22;52989;48.796;9.806;2023-03-23T13:13:25;17.30;75.40
66184;DHT22;52989;48.796;9.806;2023-03-23T13:16:03;17.40;74.40
66184;DHT22;52989;48.796;9.806;2023-03-23T13:18:33;17.20;73.00
66184;DHT22;52989;48.796;9.806;2023-03-23T13:23:46;17.50;75.20
66184;DHT22;52989;48.796;9.806;2023-03-23T13:26:15;17.50;75.00
66184;DHT22;52989;48.796;9.806;2023-03-23T13:33:51;17.50;73.20
66184;DHT22;52989;48.796;9.806;2023-03-23T13:37:25;17.80;72.80
66184;DHT22;52989;48.796;9.806;2023-03-23T13:39:25;17.60;73.80
66184;DHT22;52989;48.796;9.806;2023-03-23T13:55:16;17.90;72.40
66184;DHT22;52989;48.796;9.806;2023-03-23T14:03:04;17.40;70.50
66184;DHT22;52989;48.796;9.806;2023-03-23T14:05:37;17.50;71.80
66184;DHT22;52989;48.796;9.806;2023-03-23T14:10:43;17.40;70.70
66184;DHT22;52989;48.796;9.806;2023-03-23T14:13:18;17.40;71.00
66184;DHT22;52989;48.796;9.806;2023-03-23T14:15:54;17.50;71.80
66184;DHT22;52989;48.796;9.806;2023-03-23T14:18:21;17.60;70.80
66184;DHT22;52989;48.796;9.806;2023-03-23T14:20:47;17.50;70.70
66184;DHT22;52989;48.796;9.806;2023-03-23T14:23:16;17.50;70.10
66184;DHT22;52989;48.796;9.806;2023-03-23T14:25:42;17.40;71.10
66184;DHT22;52989;48.796;9.806;2023-03-23T14:28:20;17.40;70.70
66184;DHT22;52989;48.796;9.806;2023-03-23T14:30:48;17.40;70.50
66184;DHT22;52989;48.796;9.806;2023-03-23T14:33:16;17.30;70.60
66184;DHT22;52989;48.796;9.806;2023-03-23T14:35:42;17.00;71.00
66184;DHT22;52989;48.796;9.806;2023-03-23T14:38:11;17.00;71.60
66184;DHT22;52989;48.796;9.806;2023-03-23T14:40:39;16.90;71.20
66184;DHT22;52989;48.796;9.806;2023-03-23T14:43:05;16.80;72.30
66184;DHT22;52989;48.796;9.806;2023-03-23T14:45:31;16.80;73.30
66184;DHT22;52989;48.796;9.806;2023-03-23T14:47:57;16.80;72.60
66184;DHT22;52989;48.796;9.806;2023-03-23T14:50:26;16.90;72.90
66184;DHT22;52989;48.796;9.806;2023-03-23T14:52:56;17.00;72.30
66184;DHT22;52989;48.796;9.806;2023-03-23T14:55:22;16.80;71.60
66184;DHT22;52989;48.796;9.806;2023-03-23T14:57:48;16.80;71.90
66184;DHT22;52989;48.796;9.806;2023-03-23T15:00:33;16.70;72.00
66184;DHT22;52989;48.796;9.806;2023-03-23T15:02:59;16.50;73.00
66184;DHT22;52989;48.796;9.806;2023-03-23T15:05:30;16.60;72.80
66184;DHT22;52989;48.796;9.806;2023-03-23T15:08:00;16.60;72.70
66184;DHT22;52989;48.796;9.806;2023-03-23T15:10:26;16.70;72.50
66184;DHT22;52989;48.796;9.806;2023-03-23T15:12:52;16.70;72.50
66184;DHT22;52989;48.796;9.806;2023-03-23T15:15:30;16.70;72.40
66184;DHT22;52989;48.796;9.806;2023-03-23T15:17:56;16.70;72.20
66184;DHT22;52989;48.796;9.806;2023-03-23T15:22:47;16.70;72.30
66184;DHT22;52989;48.796;9.806;2023-03-23T15:25:18;16.70;72.60
66184;DHT22;52989;48.796;9.806;2023-03-23T15:27:46;16.80;72.50
66184;DHT22;52989;48.796;9.806;2023-03-23T15:32:43;16.70;72.10
66184;DHT22;52989;48.796;9.806;2023-03-23T15:35:14;16.60;72.10
66184;DHT22;52989;48.796;9.806;2023-03-23T15:37:43;16.60;72.00
66184;DHT22;52989;48.796;9.806;2023-03-23T15:40:20;16.60;72.00
66184;DHT22;52989;48.796;9.806;2023-03-23T15:42:46;16.60;73.10
66184;DHT22;52989;48.796;9.806;2023-03-23T15:47:44;16.50;72.20
66184;DHT22;52989;48.796;9.806;2023-03-23T15:50:15;16.50;71.50
66184;DHT22;52989;48.796;9.806;2023-03-23T15:52:41;16.40;72.00
66184;DHT22;52989;48.796;9.806;2023-03-23T15:57:44;16.40;70.90
66184;DHT22;52989;48.796;9.806;2023-03-23T16:00:10;16.40;71.70
66184;DHT22;52989;48.796;9.806;2023-03-23T16:02:36;16.40;72.80
66184;DHT22;52989;48.796;9.806;2023-03-23T16:05:02;16.50;71.80
66184;DHT22;52989;48.796;9.806;2023-03-23T16:07:27;16.50;72.00
66184;DHT22;52989;48.796;9.806;2023-03-23T16:09:53;16.40;71.80
66184;DHT22;52989;48.796;9.806;2023-03-23T16:12:18;16.40;71.20
66184;DHT22;52989;48.796;9.806;2023-03-23T16:14:44;16.40;71.50
66184;DHT22;52989;48.796;9.806;2023-03-23T16:17:10;16.30;71.50
66184;DHT22;52989;48.796;9.806;2023-03-23T16:19:38;16.20;73.10
66184;DHT22;52989;48.796;9.806;2023-03-23T16:22:03;16.20;72.80
66184;DHT22;52989;48.796;9.806;2023-03-23T16:24:29;16.10;71.60
66184;DHT22;52989;48.796;9.806;2023-03-23T16:26:54;16.10;71.80
66184;DHT22;52989;48.796;9.806;2023-03-23T16:29:20;16.10;72.50
66184;DHT22;52989;48.796;9.806;2023-03-23T16:31:45;16.10;72.20
66184;DHT22;52989;48.796;9.806;2023-03-23T16:34:11;16.10;72.30
66184;DHT22;52989;48.796;9.806;2023-03-23T16:36:36;16.00;72.30
66184;DHT22;52989;48.796;9.806;2023-03-23T16:39:02;16.00;72.40
66184;DHT22;52989;48.796;9.806;2023-03-23T16:41:28;16.00;71.50
66184;DHT22;52989;48.796;9.806;2023-03-23T16:43:54;15.90;72.30
66184;DHT22;52989;48.796;9.806;2023-03-23T16:46:20;15.80;72.20
66184;DHT22;52989;48.796;9.806;2023-03-23T16:48:45;15.90;72.60
66184;DHT22;52989;48.796;9.806;2023-03-23T16:51:11;15.80;72.70
66184;DHT22;52989;48.796;9.806;2023-03-23T16:53:36;15.80;72.80
66184;DHT22;52989;48.796;9.806;2023-03-23T16:56:02;15.80;72.30
66184;DHT22;52989;48.796;9.806;2023-03-23T16:58:28;15.80;71.80
66184;DHT22;52989;48.796;9.806;2023-03-23T17:00:53;15.80;71.60
66184;DHT22;52989;48.796;9.806;2023-03-23T17:03:19;15.70;72.80
66184;DHT22;52989;48.796;9.806;2023-03-23T17:05:46;15.70;72.30
66184;DHT22;52989;48.796;9.806;2023-03-23T17:08:12;15.70;72.30
66184;DHT22;52989;48.796;9.806;2023-03-23T17:10:38;15.70;72.80
66184;DHT22;52989;48.796;9.806;2023-03-23T17:13:04;15.60;73.20
66184;DHT22;52989;48.796;9.806;2023-03-23T17:15:29;15.50;72.80
66184;DHT22;52989;48.796;9.806;2023-03-23T17:17:55;15.50;73.20
66184;DHT22;52989;48.796;9.806;2023-03-23T17:20:20;15.50;72.90
66184;DHT22;52989;48.796;9.806;2023-03-23T17:22:46;15.50;72.70
66184;DHT22;52989;48.796;9.806;2023-03-23T17:25:12;15.40;73.80
66184;DHT22;52989;48.796;9.806;2023-03-23T17:27:38;15.30;73.40
66184;DHT22;52989;48.796;9.806;2023-03-23T17:30:04;15.40;73.30
66184;DHT22;52989;48.796;9.806;2023-03-23T17:32:29;15.30;73.70
66184;DHT22;52989;48.796;9.806;2023-03-23T17:34:55;15.30;73.60
66184;DHT22;52989;48.796;9.806;2023-03-23T17:37:20;15.30;73.80
66184;DHT22;52989;48.796;9.806;2023-03-23T17:39:46;15.30;73.40